sensor_id;sensor_type;location;lat;lon;timestamp;pressure;altitude;pressure_sealevel;temperature;humidity
20628;BME280;10473;42.734;24.258;2023-04-30T00:00:31;91580.94;;;10.84;63.20
20628;BME280;10473;42.734;24.258;2023-04-30T00:02:58;91570.66;;;10.65;63.25
20628;BME280;10473;42.734;24.258;2023-04-30T00:05:26;91561.91;;;10.61;62.99
20628;BME280;10473;42.734;24.258;2023-04-30T00:07:54;91583.81;;;10.47;63.96
20628;BME280;10473;42.734;24.258;2023-04-30T00:10:21;91574.06;;;10.62;63.30
20628;BME280;10473;42.734;24.258;2023-04-30T00:12:49;91567.19;;;10.47;63.83
20628;BME280;10473;42.734;24.258;2023-04-30T00:15:17;91571.00;;;10.56;63.28
20628;BME280;10473;42.734;24.258;2023-04-30T00:17:46;91564.19;;;10.59;63.20
20628;BME280;10473;42.734;24.258;2023-04-30T00:20:14;91564.97;;;10.66;62.93
20628;BME280;10473;42.734;24.258;2023-04-30T00:22:41;91565.34;;;10.65;62.97
20628;BME280;10473;42.734;24.258;2023-04-30T00:25:09;91563.47;;;10.62;63.12
20628;BME280;10473;42.734;24.258;2023-04-30T00:27:37;91564.91;;;10.52;63.22
20628;BME280;10473;42.734;24.258;2023-04-30T00:30:06;91556.97;;;10.56;63.16
20628;BME280;10473;42.734;24.258;2023-04-30T00:32:33;91564.13;;;10.45;63.87
20628;BME280;10473;42.734;24.258;2023-04-30T00:35:03;91507.22;;;10.07;63.27
20628;BME280;10473;42.734;24.258;2023-04-30T00:37:31;91571.72;;;10.53;63.01
20628;BME280;10473;42.734;24.258;2023-04-30T00:39:58;91561.84;;;10.40;63.36
20628;BME280;10473;42.734;24.258;2023-04-30T00:42:26;91568.72;;;10.55;62.61
20628;BME280;10473;42.734;24.258;2023-04-30T00:44:54;91570.63;;;10.58;63.44
20628;BME280;10473;42.734;24.258;2023-04-30T00:47:22;91566.41;;;10.43;63.75
20628;BME280;10473;42.734;24.258;2023-04-30T00:49:49;91569.47;;;10.52;63.47
20628;BME280;10473;42.734;24.258;2023-04-30T00:52:19;91554.25;;;10.35;63.11
20628;BME280;10473;42.734;24.258;2023-04-30T00:54:47;91570.91;;;10.39;63.58
20628;BME280;10473;42.734;24.258;2023-04-30T00:57:15;91560.69;;;10.41;63.05
20628;BME280;10473;42.734;24.258;2023-04-30T00:59:43;91562.88;;;10.21;63.56
20628;BME280;10473;42.734;24.258;2023-04-30T01:02:12;91561.38;;;10.20;63.62
20628;BME280;10473;42.734;24.258;2023-04-30T01:04:40;91560.97;;;10.22;63.49
20628;BME280;10473;42.734;24.258;2023-04-30T01:07:07;91557.56;;;10.18;63.34
20628;BME280;10473;42.734;24.258;2023-04-30T01:09:38;91556.69;;;10.00;64.26
20628;BME280;10473;42.734;24.258;2023-04-30T01:12:09;91561.66;;;10.05;63.59
20628;BME280;10473;42.734;24.258;2023-04-30T01:14:48;91555.94;;;10.03;63.52
20628;BME280;10473;42.734;24.258;2023-04-30T01:17:24;91558.53;;;9.96;63.89
20628;BME280;10473;42.734;24.258;2023-04-30T01:19:55;91556.25;;;9.94;63.51
20628;BME280;10473;42.734;24.258;2023-04-30T01:22:34;91554.75;;;9.97;63.69
20628;BME280;10473;42.734;24.258;2023-04-30T01:25:19;91552.31;;;9.67;64.86
20628;BME280;10473;42.734;24.258;2023-04-30T01:28:01;91560.31;;;9.78;64.22
20628;BME280;10473;42.734;24.258;2023-04-30T01:30:31;91565.63;;;9.81;64.06
20628;BME280;10473;42.734;24.258;2023-04-30T01:32:59;91558.38;;;9.68;64.70
20628;BME280;10473;42.734;24.258;2023-04-30T01:35:39;91541.53;;;9.43;65.57
20628;BME280;10473;42.734;24.258;2023-04-30T01:38:17;91565.22;;;9.76;64.74
20628;BME280;10473;42.734;24.258;2023-04-30T01:40:51;91561.66;;;9.58;65.29
20628;BME280;10473;42.734;24.258;2023-04-30T01:43:28;91556.06;;;9.63;65.28
20628;BME280;10473;42.734;24.258;2023-04-30T01:46:05;91534.03;;;9.52;64.89
20628;BME280;10473;42.734;24.258;2023-04-30T01:48:42;91562.56;;;9.76;64.73
20628;BME280;10473;42.734;24.258;2023-04-30T01:51:18;91561.03;;;9.71;65.14
20628;BME280;10473;42.734;24.258;2023-04-30T01:53:47;91500.31;;;9.35;65.22
20628;BME280;10473;42.734;24.258;2023-04-30T01:56:20;91566.72;;;9.77;64.76
20628;BME280;10473;42.734;24.258;2023-04-30T01:58:55;91558.72;;;9.66;64.94
20628;BME280;10473;42.734;24.258;2023-04-30T02:01:27;91559.19;;;9.75;64.64
20628;BME280;10473;42.734;24.258;2023-04-30T02:03:55;91517.81;;;9.50;64.85
20628;BME280;10473;42.734;24.258;2023-04-30T02:06:23;91554.94;;;9.64;65.04
20628;BME280;10473;42.734;24.258;2023-04-30T02:08:53;91557.22;;;9.69;64.73
20628;BME280;10473;42.734;24.258;2023-04-30T02:11:21;91546.25;;;9.67;64.87
20628;BME280;10473;42.734;24.258;2023-04-30T02:13:49;91555.28;;;9.62;65.17
20628;BME280;10473;42.734;24.258;2023-04-30T02:16:18;91548.13;;;9.63;64.75
20628;BME280;10473;42.734;24.258;2023-04-30T02:18:46;91557.06;;;9.48;65.96
20628;BME280;10473;42.734;24.258;2023-04-30T02:21:14;91562.06;;;9.56;65.78
20628;BME280;10473;42.734;24.258;2023-04-30T02:23:42;91530.88;;;9.32;65.54
20628;BME280;10473;42.734;24.258;2023-04-30T02:26:09;91547.50;;;9.33;65.86
20628;BME280;10473;42.734;24.258;2023-04-30T02:28:37;91553.84;;;9.25;66.26
20628;BME280;10473;42.734;24.258;2023-04-30T02:31:05;91528.94;;;9.26;65.70
20628;BME280;10473;42.734;24.258;2023-04-30T02:33:34;91533.63;;;9.03;66.72
20628;BME280;10473;42.734;24.258;2023-04-30T02:36:02;91551.97;;;9.25;65.79
20628;BME280;10473;42.734;24.258;2023-04-30T02:38:29;91547.44;;;9.26;65.80
20628;BME280;10473;42.734;24.258;2023-04-30T02:40:57;91545.09;;;9.14;66.60
20628;BME280;10473;42.734;24.258;2023-04-30T02:43:25;91510.97;;;8.98;65.98
20628;BME280;10473;42.734;24.258;2023-04-30T02:45:54;91519.66;;;8.99;66.50
20628;BME280;10473;42.734;24.258;2023-04-30T02:48:22;91550.41;;;9.21;66.30
20628;BME280;10473;42.734;24.258;2023-04-30T02:50:55;91536.03;;;9.15;66.32
20628;BME280;10473;42.734;24.258;2023-04-30T02:53:22;91541.97;;;9.05;67.05
20628;BME280;10473;42.734;24.258;2023-04-30T02:55:50;91538.16;;;8.99;67.31
20628;BME280;10473;42.734;24.258;2023-04-30T02:58:18;91547.31;;;9.12;66.83
20628;BME280;10473;42.734;24.258;2023-04-30T03:00:46;91546.97;;;8.77;68.29
20628;BME280;10473;42.734;24.258;2023-04-30T03:03:14;91551.75;;;9.01;67.45
20628;BME280;10473;42.734;24.258;2023-04-30T03:05:41;91523.59;;;8.79;67.75
20628;BME280;10473;42.734;24.258;2023-04-30T03:08:11;91533.81;;;8.84;67.86
20628;BME280;10473;42.734;24.258;2023-04-30T03:10:38;91555.19;;;9.05;67.54
20628;BME280;10473;42.734;24.258;2023-04-30T03:13:06;91563.97;;;9.16;67.34
20628;BME280;10473;42.734;24.258;2023-04-30T03:15:34;91540.41;;;9.00;67.60
20628;BME280;10473;42.734;24.258;2023-04-30T03:18:01;91556.00;;;9.12;67.16
20628;BME280;10473;42.734;24.258;2023-04-30T03:20:30;91561.31;;;9.12;67.13
20628;BME280;10473;42.734;24.258;2023-04-30T03:22:57;91561.59;;;9.04;67.60
20628;BME280;10473;42.734;24.258;2023-04-30T03:25:26;91546.50;;;9.08;67.15
20628;BME280;10473;42.734;24.258;2023-04-30T03:27:55;91567.72;;;9.11;67.50
20628;BME280;10473;42.734;24.258;2023-04-30T03:30:25;91573.00;;;9.11;67.60
20628;BME280;10473;42.734;24.258;2023-04-30T03:32:52;91568.91;;;9.17;67.44
20628;BME280;10473;42.734;24.258;2023-04-30T03:35:20;91571.28;;;8.93;68.56
20628;BME280;10473;42.734;24.258;2023-04-30T03:37:48;91572.50;;;8.99;68.35
20628;BME280;10473;42.734;24.258;2023-04-30T03:40:16;91566.06;;;8.96;68.25
20628;BME280;10473;42.734;24.258;2023-04-30T03:42:45;91564.56;;;8.99;68.22
20628;BME280;10473;42.734;24.258;2023-04-30T03:45:12;91568.81;;;9.10;68.15
20628;BME280;10473;42.734;24.258;2023-04-30T03:47:41;91575.78;;;8.89;69.36
20628;BME280;10473;42.734;24.258;2023-04-30T03:50:09;91579.78;;;9.09;68.33
20628;BME280;10473;42.734;24.258;2023-04-30T03:52:37;91543.06;;;8.64;68.93
20628;BME280;10473;42.734;24.258;2023-04-30T03:55:06;91582.25;;;8.95;69.34
20628;BME280;10473;42.734;24.258;2023-04-30T03:57:34;91580.88;;;9.08;68.50
20628;BME280;10473;42.734;24.258;2023-04-30T04:00:05;91583.16;;;9.09;68.60
20628;BME280;10473;42.734;24.258;2023-04-30T04:02:39;91587.88;;;8.90;69.77
20628;BME280;10473;42.734;24.258;2023-04-30T04:05:10;91581.19;;;9.03;69.04
20628;BME280;10473;42.734;24.258;2023-04-30T04:07:37;91582.81;;;9.11;68.86
20628;BME280;10473;42.734;24.258;2023-04-30T04:10:06;91583.25;;;9.16;69.12
20628;BME280;10473;42.734;24.258;2023-04-30T04:12:34;91584.84;;;9.28;69.00
20628;BME280;10473;42.734;24.258;2023-04-30T04:15:01;91581.81;;;9.26;68.62
20628;BME280;10473;42.734;24.258;2023-04-30T04:17:31;91586.09;;;9.41;68.20
20628;BME280;10473;42.734;24.258;2023-04-30T04:19:58;91582.41;;;9.49;67.98
20628;BME280;10473;42.734;24.258;2023-04-30T04:22:26;91588.78;;;9.48;68.37
20628;BME280;10473;42.734;24.258;2023-04-30T04:24:54;91593.47;;;9.65;68.07
20628;BME280;10473;42.734;24.258;2023-04-30T04:27:23;91591.69;;;9.79;67.56
20628;BME280;10473;42.734;24.258;2023-04-30T04:29:51;91586.47;;;9.90;68.25
20628;BME280;10473;42.734;24.258;2023-04-30T04:32:20;91598.44;;;10.20;67.68
20628;BME280;10473;42.734;24.258;2023-04-30T04:34:50;91605.00;;;10.47;67.06
20628;BME280;10473;42.734;24.258;2023-04-30T04:37:19;91602.84;;;10.70;66.89
20628;BME280;10473;42.734;24.258;2023-04-30T04:39:47;91601.81;;;11.06;66.36
20628;BME280;10473;42.734;24.258;2023-04-30T04:42:15;91598.47;;;11.27;63.61
20628;BME280;10473;42.734;24.258;2023-04-30T04:44:43;91597.75;;;11.58;63.71
20628;BME280;10473;42.734;24.258;2023-04-30T04:47:11;91603.88;;;11.83;63.53
20628;BME280;10473;42.734;24.258;2023-04-30T04:49:38;91602.34;;;12.06;63.12
20628;BME280;10473;42.734;24.258;2023-04-30T04:52:08;91601.19;;;12.32;63.27
20628;BME280;10473;42.734;24.258;2023-04-30T04:54:36;91604.16;;;12.55;62.56
20628;BME280;10473;42.734;24.258;2023-04-30T04:57:04;91604.50;;;12.71;62.66
20628;BME280;10473;42.734;24.258;2023-04-30T04:59:32;91602.94;;;12.84;61.79
20628;BME280;10473;42.734;24.258;2023-04-30T05:01:59;91608.97;;;13.02;61.54
20628;BME280;10473;42.734;24.258;2023-04-30T05:04:27;91609.69;;;13.16;60.90
20628;BME280;10473;42.734;24.258;2023-04-30T05:06:55;91613.34;;;13.40;61.38
20628;BME280;10473;42.734;24.258;2023-04-30T05:09:24;91615.59;;;13.52;60.55
20628;BME280;10473;42.734;24.258;2023-04-30T05:11:52;91615.44;;;13.73;59.88
20628;BME280;10473;42.734;24.258;2023-04-30T05:14:20;91597.13;;;13.78;58.78
20628;BME280;10473;42.734;24.258;2023-04-30T05:16:53;91611.88;;;13.90;59.05
20628;BME280;10473;42.734;24.258;2023-04-30T05:19:47;91618.38;;;13.89;58.68
20628;BME280;10473;42.734;24.258;2023-04-30T05:22:15;91614.94;;;13.92;58.46
20628;BME280;10473;42.734;24.258;2023-04-30T05:24:47;91613.13;;;13.75;57.96
20628;BME280;10473;42.734;24.258;2023-04-30T05:27:18;91622.16;;;13.91;57.42
20628;BME280;10473;42.734;24.258;2023-04-30T05:29:46;91632.16;;;13.77;57.07
20628;BME280;10473;42.734;24.258;2023-04-30T05:32:13;91628.34;;;13.78;56.27
20628;BME280;10473;42.734;24.258;2023-04-30T05:34:41;91623.31;;;13.90;55.21
20628;BME280;10473;42.734;24.258;2023-04-30T05:37:09;91616.81;;;13.91;55.99
20628;BME280;10473;42.734;24.258;2023-04-30T05:39:37;91620.94;;;14.03;55.44
20628;BME280;10473;42.734;24.258;2023-04-30T05:42:07;91625.16;;;13.93;56.30
20628;BME280;10473;42.734;24.258;2023-04-30T05:44:38;91622.84;;;13.99;54.49
20628;BME280;10473;42.734;24.258;2023-04-30T05:47:05;91603.78;;;14.04;54.44
20628;BME280;10473;42.734;24.258;2023-04-30T05:49:33;91618.06;;;14.31;53.28
20628;BME280;10473;42.734;24.258;2023-04-30T05:52:01;91624.09;;;14.35;53.12
20628;BME280;10473;42.734;24.258;2023-04-30T05:54:29;91614.59;;;14.34;53.17
20628;BME280;10473;42.734;24.258;2023-04-30T05:56:57;91622.13;;;14.42;53.09
20628;BME280;10473;42.734;24.258;2023-04-30T05:59:27;91626.34;;;14.40;54.75
20628;BME280;10473;42.734;24.258;2023-04-30T06:01:55;91625.13;;;14.48;56.17
20628;BME280;10473;42.734;24.258;2023-04-30T06:04:25;91607.38;;;14.34;55.66
20628;BME280;10473;42.734;24.258;2023-04-30T06:06:52;91630.38;;;14.55;56.19
20628;BME280;10473;42.734;24.258;2023-04-30T06:09:20;91626.94;;;14.58;56.63
20628;BME280;10473;42.734;24.258;2023-04-30T06:11:48;91628.09;;;14.57;56.15
20628;BME280;10473;42.734;24.258;2023-04-30T06:14:18;91625.00;;;14.62;54.74
20628;BME280;10473;42.734;24.258;2023-04-30T06:16:49;91637.09;;;14.70;54.39
20628;BME280;10473;42.734;24.258;2023-04-30T06:19:17;91642.38;;;14.77;53.88
20628;BME280;10473;42.734;24.258;2023-04-30T06:21:45;91641.09;;;14.92;54.29
20628;BME280;10473;42.734;24.258;2023-04-30T06:24:12;91630.84;;;14.87;53.55
20628;BME280;10473;42.734;24.258;2023-04-30T06:26:40;91640.88;;;15.09;53.46
20628;BME280;10473;42.734;24.258;2023-04-30T06:29:07;91648.28;;;15.28;51.89
20628;BME280;10473;42.734;24.258;2023-04-30T06:31:35;91640.44;;;15.48;51.78
20628;BME280;10473;42.734;24.258;2023-04-30T06:34:04;91635.34;;;15.27;52.41
20628;BME280;10473;42.734;24.258;2023-04-30T06:36:32;91630.53;;;15.48;52.02
20628;BME280;10473;42.734;24.258;2023-04-30T06:39:00;91631.50;;;15.61;53.18
20628;BME280;10473;42.734;24.258;2023-04-30T06:41:27;91612.09;;;15.57;52.69
20628;BME280;10473;42.734;24.258;2023-04-30T06:43:55;91621.03;;;15.74;52.84
20628;BME280;10473;42.734;24.258;2023-04-30T06:46:23;91621.78;;;15.74;53.70
20628;BME280;10473;42.734;24.258;2023-04-30T06:48:51;91617.78;;;15.86;53.64
20628;BME280;10473;42.734;24.258;2023-04-30T06:51:22;91624.66;;;15.87;53.67
20628;BME280;10473;42.734;24.258;2023-04-30T06:53:50;91631.94;;;15.83;53.61
20628;BME280;10473;42.734;24.258;2023-04-30T06:56:18;91627.13;;;16.01;52.56
20628;BME280;10473;42.734;24.258;2023-04-30T06:58:47;91636.84;;;15.88;53.36
20628;BME280;10473;42.734;24.258;2023-04-30T07:01:15;91625.94;;;16.02;52.53
20628;BME280;10473;42.734;24.258;2023-04-30T07:03:43;91631.75;;;15.97;52.09
20628;BME280;10473;42.734;24.258;2023-04-30T07:06:11;91621.25;;;15.83;50.60
20628;BME280;10473;42.734;24.258;2023-04-30T07:08:40;91625.41;;;15.87;50.85
20628;BME280;10473;42.734;24.258;2023-04-30T07:11:09;91635.38;;;15.83;49.89
20628;BME280;10473;42.734;24.258;2023-04-30T07:13:37;91605.41;;;15.72;50.07
20628;BME280;10473;42.734;24.258;2023-04-30T07:16:06;91624.06;;;15.76;50.02
20628;BME280;10473;42.734;24.258;2023-04-30T07:18:35;91621.78;;;15.74;49.42
20628;BME280;10473;42.734;24.258;2023-04-30T07:21:03;91639.94;;;15.86;48.52
20628;BME280;10473;42.734;24.258;2023-04-30T07:23:31;91635.25;;;15.67;49.95
20628;BME280;10473;42.734;24.258;2023-04-30T07:26:00;91643.00;;;15.85;49.99
20628;BME280;10473;42.734;24.258;2023-04-30T07:28:28;91637.72;;;15.81;50.09
20628;BME280;10473;42.734;24.258;2023-04-30T07:30:55;91644.13;;;15.87;50.63
20628;BME280;10473;42.734;24.258;2023-04-30T07:33:23;91640.88;;;15.99;50.62
20628;BME280;10473;42.734;24.258;2023-04-30T07:35:51;91639.56;;;16.11;50.70
20628;BME280;10473;42.734;24.258;2023-04-30T07:38:20;91636.69;;;16.25;50.34
20628;BME280;10473;42.734;24.258;2023-04-30T07:40:49;91641.03;;;16.38;48.88
20628;BME280;10473;42.734;24.258;2023-04-30T07:43:18;91616.34;;;16.31;49.07
20628;BME280;10473;42.734;24.258;2023-04-30T07:45:45;91645.78;;;16.54;47.32
20628;BME280;10473;42.734;24.258;2023-04-30T07:48:14;91640.22;;;16.45;47.21
20628;BME280;10473;42.734;24.258;2023-04-30T07:50:42;91648.09;;;16.52;46.38
20628;BME280;10473;42.734;24.258;2023-04-30T07:53:10;91641.00;;;16.65;45.75
20628;BME280;10473;42.734;24.258;2023-04-30T07:55:37;91648.94;;;16.72;46.13
20628;BME280;10473;42.734;24.258;2023-04-30T07:58:06;91638.91;;;16.76;46.07
20628;BME280;10473;42.734;24.258;2023-04-30T08:00:35;91651.94;;;16.97;44.59
20628;BME280;10473;42.734;24.258;2023-04-30T08:03:03;91634.28;;;16.99;45.19
20628;BME280;10473;42.734;24.258;2023-04-30T08:05:30;91648.38;;;17.23;43.94
20628;BME280;10473;42.734;24.258;2023-04-30T08:07:58;91642.94;;;17.07;43.88
20628;BME280;10473;42.734;24.258;2023-04-30T08:10:27;91645.19;;;16.89;42.96
20628;BME280;10473;42.734;24.258;2023-04-30T08:12:54;91642.31;;;17.19;43.48
20628;BME280;10473;42.734;24.258;2023-04-30T08:15:22;91651.34;;;17.28;43.27
20628;BME280;10473;42.734;24.258;2023-04-30T08:17:51;91651.50;;;17.41;44.17
20628;BME280;10473;42.734;24.258;2023-04-30T08:20:19;91648.97;;;17.53;43.07
20628;BME280;10473;42.734;24.258;2023-04-30T08:22:48;91641.59;;;17.57;43.50
20628;BME280;10473;42.734;24.258;2023-04-30T08:25:18;91653.28;;;17.67;43.00
20628;BME280;10473;42.734;24.258;2023-04-30T08:28:05;91633.91;;;17.59;43.49
20628;BME280;10473;42.734;24.258;2023-04-30T08:30:33;91592.91;;;17.43;43.17
20628;BME280;10473;42.734;24.258;2023-04-30T08:33:06;91656.50;;;17.58;41.64
20628;BME280;10473;42.734;24.258;2023-04-30T08:35:34;91657.38;;;17.71;41.90
20628;BME280;10473;42.734;24.258;2023-04-30T08:38:02;91650.09;;;17.72;41.53
20628;BME280;10473;42.734;24.258;2023-04-30T08:40:31;91663.00;;;17.77;41.68
20628;BME280;10473;42.734;24.258;2023-04-30T08:43:04;91657.97;;;17.79;42.27
20628;BME280;10473;42.734;24.258;2023-04-30T08:45:32;91654.06;;;17.83;42.77
20628;BME280;10473;42.734;24.258;2023-04-30T08:48:00;91648.81;;;17.96;43.00
20628;BME280;10473;42.734;24.258;2023-04-30T08:50:31;91651.13;;;18.13;42.69
20628;BME280;10473;42.734;24.258;2023-04-30T08:53:01;91638.63;;;18.07;42.72
20628;BME280;10473;42.734;24.258;2023-04-30T08:55:29;91649.84;;;18.02;42.48
20628;BME280;10473;42.734;24.258;2023-04-30T08:58:00;91653.78;;;18.13;42.04
20628;BME280;10473;42.734;24.258;2023-04-30T09:00:28;91637.31;;;17.79;42.79
20628;BME280;10473;42.734;24.258;2023-04-30T09:02:59;91650.97;;;17.85;43.09
20628;BME280;10473;42.734;24.258;2023-04-30T09:05:27;91656.47;;;17.78;43.23
20628;BME280;10473;42.734;24.258;2023-04-30T09:07:57;91660.53;;;17.66;42.85
20628;BME280;10473;42.734;24.258;2023-04-30T09:10:25;91662.31;;;17.73;43.69
20628;BME280;10473;42.734;24.258;2023-04-30T09:12:59;91656.06;;;17.79;43.21
20628;BME280;10473;42.734;24.258;2023-04-30T09:15:28;91647.34;;;17.75;42.52
20628;BME280;10473;42.734;24.258;2023-04-30T09:18:07;91633.50;;;17.61;43.07
20628;BME280;10473;42.734;24.258;2023-04-30T09:20:54;91649.69;;;17.73;43.10
20628;BME280;10473;42.734;24.258;2023-04-30T09:23:23;91642.28;;;17.61;42.44
20628;BME280;10473;42.734;24.258;2023-04-30T09:25:51;91649.50;;;17.64;43.20
20628;BME280;10473;42.734;24.258;2023-04-30T09:28:19;91650.31;;;17.81;43.03
20628;BME280;10473;42.734;24.258;2023-04-30T09:30:50;91643.72;;;17.66;44.07
20628;BME280;10473;42.734;24.258;2023-04-30T09:33:18;91638.22;;;17.73;42.22
20628;BME280;10473;42.734;24.258;2023-04-30T09:35:46;91651.13;;;17.78;42.35
20628;BME280;10473;42.734;24.258;2023-04-30T09:38:28;91648.09;;;17.76;43.15
20628;BME280;10473;42.734;24.258;2023-04-30T09:40:57;91629.28;;;17.60;43.20
20628;BME280;10473;42.734;24.258;2023-04-30T09:43:26;91647.03;;;17.54;43.48
20628;BME280;10473;42.734;24.258;2023-04-30T09:45:54;91627.94;;;17.52;44.22
20628;BME280;10473;42.734;24.258;2023-04-30T09:48:25;91646.00;;;17.48;42.70
20628;BME280;10473;42.734;24.258;2023-04-30T09:50:53;91618.56;;;17.21;43.03
20628;BME280;10473;42.734;24.258;2023-04-30T09:53:21;91633.91;;;17.40;43.72
20628;BME280;10473;42.734;24.258;2023-04-30T09:55:51;91628.50;;;17.43;44.55
20628;BME280;10473;42.734;24.258;2023-04-30T09:58:19;91622.28;;;17.27;44.50
20628;BME280;10473;42.734;24.258;2023-04-30T10:00:49;91624.38;;;17.39;43.91
20628;BME280;10473;42.734;24.258;2023-04-30T10:03:20;91629.06;;;17.31;44.26
20628;BME280;10473;42.734;24.258;2023-04-30T10:05:50;91626.00;;;17.33;43.37
20628;BME280;10473;42.734;24.258;2023-04-30T10:08:23;91622.72;;;17.45;43.97
20628;BME280;10473;42.734;24.258;2023-04-30T10:10:57;91625.38;;;17.45;44.50
20628;BME280;10473;42.734;24.258;2023-04-30T10:13:28;91619.41;;;17.57;43.88
20628;BME280;10473;42.734;24.258;2023-04-30T10:16:00;91616.50;;;17.67;43.19
20628;BME280;10473;42.734;24.258;2023-04-30T10:18:33;91614.56;;;17.68;42.96
20628;BME280;10473;42.734;24.258;2023-04-30T10:21:02;91613.56;;;17.62;42.22
20628;BME280;10473;42.734;24.258;2023-04-30T10:23:36;91617.06;;;17.59;42.73
20628;BME280;10473;42.734;24.258;2023-04-30T10:26:06;91611.88;;;17.52;42.17
20628;BME280;10473;42.734;24.258;2023-04-30T10:28:35;91615.78;;;17.83;41.16
20628;BME280;10473;42.734;24.258;2023-04-30T10:31:05;91613.28;;;17.92;40.26
20628;BME280;10473;42.734;24.258;2023-04-30T10:33:55;91611.81;;;18.07;41.21
20628;BME280;10473;42.734;24.258;2023-04-30T10:36:37;91588.06;;;18.21;41.74
20628;BME280;10473;42.734;24.258;2023-04-30T10:39:07;91589.59;;;18.54;42.11
20628;BME280;10473;42.734;24.258;2023-04-30T10:41:37;91592.72;;;18.53;38.45
20628;BME280;10473;42.734;24.258;2023-04-30T10:44:06;91584.66;;;18.53;38.77
20628;BME280;10473;42.734;24.258;2023-04-30T10:46:34;91601.63;;;18.50;39.58
20628;BME280;10473;42.734;24.258;2023-04-30T10:49:02;91591.03;;;18.43;39.30
20628;BME280;10473;42.734;24.258;2023-04-30T10:51:46;91586.34;;;18.31;39.06
20628;BME280;10473;42.734;24.258;2023-04-30T10:54:15;91592.81;;;18.33;39.65
20628;BME280;10473;42.734;24.258;2023-04-30T10:56:50;91566.63;;;18.21;38.49
20628;BME280;10473;42.734;24.258;2023-04-30T10:59:18;91580.06;;;18.37;38.70
20628;BME280;10473;42.734;24.258;2023-04-30T11:01:56;91579.13;;;18.44;39.64
20628;BME280;10473;42.734;24.258;2023-04-30T11:04:24;91549.53;;;18.47;40.30
20628;BME280;10473;42.734;24.258;2023-04-30T11:07:01;91579.38;;;18.94;38.13
20628;BME280;10473;42.734;24.258;2023-04-30T11:09:38;91579.91;;;18.89;37.10
20628;BME280;10473;42.734;24.258;2023-04-30T11:12:12;91585.59;;;18.91;38.60
20628;BME280;10473;42.734;24.258;2023-04-30T11:14:42;91595.00;;;18.99;37.31
20628;BME280;10473;42.734;24.258;2023-04-30T11:17:11;91585.13;;;18.80;37.06
20628;BME280;10473;42.734;24.258;2023-04-30T11:19:46;91593.22;;;18.64;37.65
20628;BME280;10473;42.734;24.258;2023-04-30T11:22:20;91581.38;;;18.29;35.99
20628;BME280;10473;42.734;24.258;2023-04-30T11:25:02;91569.91;;;18.13;36.97
20628;BME280;10473;42.734;24.258;2023-04-30T11:27:33;91602.25;;;18.06;39.04
20628;BME280;10473;42.734;24.258;2023-04-30T11:30:03;91603.25;;;18.12;39.27
20628;BME280;10473;42.734;24.258;2023-04-30T11:32:32;91598.97;;;18.14;39.68
20628;BME280;10473;42.734;24.258;2023-04-30T11:35:01;91597.63;;;18.06;42.81
20628;BME280;10473;42.734;24.258;2023-04-30T11:37:31;91582.84;;;17.82;45.17
20628;BME280;10473;42.734;24.258;2023-04-30T11:40:00;91590.13;;;17.66;45.62
20628;BME280;10473;42.734;24.258;2023-04-30T11:42:29;91580.50;;;17.68;45.63
20628;BME280;10473;42.734;24.258;2023-04-30T11:45:06;91582.78;;;17.86;42.04
20628;BME280;10473;42.734;24.258;2023-04-30T11:47:42;91574.97;;;17.75;41.22
20628;BME280;10473;42.734;24.258;2023-04-30T11:50:12;91587.81;;;17.84;41.84
20628;BME280;10473;42.734;24.258;2023-04-30T11:52:40;91590.16;;;17.98;42.50
20628;BME280;10473;42.734;24.258;2023-04-30T11:55:12;91585.41;;;17.54;43.25
20628;BME280;10473;42.734;24.258;2023-04-30T11:57:42;91570.38;;;17.21;43.61
20628;BME280;10473;42.734;24.258;2023-04-30T12:00:13;91598.59;;;17.45;43.46
20628;BME280;10473;42.734;24.258;2023-04-30T12:02:42;91590.75;;;17.54;43.60
20628;BME280;10473;42.734;24.258;2023-04-30T12:05:14;91586.16;;;17.54;44.07
20628;BME280;10473;42.734;24.258;2023-04-30T12:07:45;91589.09;;;17.60;44.50
20628;BME280;10473;42.734;24.258;2023-04-30T12:10:18;91582.59;;;17.22;47.40
20628;BME280;10473;42.734;24.258;2023-04-30T12:12:47;91579.16;;;17.21;47.27
20628;BME280;10473;42.734;24.258;2023-04-30T12:15:21;91564.97;;;17.05;48.26
20628;BME280;10473;42.734;24.258;2023-04-30T12:17:52;91587.34;;;17.14;49.05
20628;BME280;10473;42.734;24.258;2023-04-30T12:20:21;91583.91;;;17.33;48.58
20628;BME280;10473;42.734;24.258;2023-04-30T12:22:49;91586.06;;;17.42;46.59
20628;BME280;10473;42.734;24.258;2023-04-30T12:25:18;91591.31;;;17.45;47.50
20628;BME280;10473;42.734;24.258;2023-04-30T12:27:48;91591.84;;;17.56;45.45
20628;BME280;10473;42.734;24.258;2023-04-30T12:30:20;91599.78;;;17.44;47.71
20628;BME280;10473;42.734;24.258;2023-04-30T12:32:49;91603.66;;;17.20;49.72
20628;BME280;10473;42.734;24.258;2023-04-30T12:35:18;91609.84;;;16.78;52.81
20628;BME280;10473;42.734;24.258;2023-04-30T12:37:49;91587.59;;;16.15;54.80
20628;BME280;10473;42.734;24.258;2023-04-30T12:40:18;91626.31;;;15.77;58.35
20628;BME280;10473;42.734;24.258;2023-04-30T12:42:47;91619.78;;;15.52;59.19
20628;BME280;10473;42.734;24.258;2023-04-30T12:45:43;91621.66;;;15.25;60.32
20628;BME280;10473;42.734;24.258;2023-04-30T12:48:12;91626.53;;;15.00;63.22
20628;BME280;10473;42.734;24.258;2023-04-30T12:50:41;91621.97;;;14.97;63.76
20628;BME280;10473;42.734;24.258;2023-04-30T12:53:08;91634.91;;;14.98;63.43
20628;BME280;10473;42.734;24.258;2023-04-30T12:55:37;91624.97;;;14.99;64.29
20628;BME280;10473;42.734;24.258;2023-04-30T12:58:06;91643.94;;;15.08;63.22
20628;BME280;10473;42.734;24.258;2023-04-30T13:00:47;91641.22;;;15.11;63.23
20628;BME280;10473;42.734;24.258;2023-04-30T13:03:17;91634.44;;;15.07;60.91
20628;BME280;10473;42.734;24.258;2023-04-30T13:05:47;91627.97;;;15.04;60.31